ASE - Aspen Pitkin County/Sardy Fld

Pirep is a free, collaborative database of all public and private airports located within the United States. All pilots are welcome to contribute, edit, and improve any airport they have local knowledge about, no registration required.
Are you familiar with this airport? Help out other pilots by adding your local knowledge.
Uploaded photos will be licensed under a CC BY-SA 4.0 license. Please only upload photos you have the rights to use.
Tags
Public
Undocu­mented
METAR / TAF
Webcam
Edit Tags
Food
Camping
Lodging
Car Rental
Bicycles
Swimming
Golfing
Fishing
Hot Springs
Museum
Flying Clubs
Airpark
Upcoming Events
No upcoming events. Is anything happening here soon?
*
*
*

Where exactly on/near the airport is this event taking place?

Is there a webpage with more information for this event?

Who should be contacted for more information?

What is this event all about?

Repeat every
Description
Transient Parking
Fuel Location
Landing & Tie-down Fees
Crew Car Availability
Flying Clubs
WiFi Access
Airport Statistics
Location: Aspen, CO
Elevation: 7,837ft
Sectional: Denver
Activation date: Mar 1949
Fuel: 100LL, A1+ (prices)
Runway 15/33: 8,006ft
Runway 00X: 0ft
Access: Open to the public
Current Weather — VFR
  • Weather data is strictly informational and not for flight planning purposes.
  • METAR
    2024-04-21 21:53:00 MDT
    Ceiling Wind Temperature Dewpoint Weather Visbility
    Sky clear 200° @ 6kt 44°F 21°F N/A 10SM
    Raw: KASE 220353Z AUTO 20006KT 10SM CLR 07/M06 A3020 RMK AO2 SLP152 T00671056
  • TAF
    2024-04-21 18:00:00 MDT – 2024-04-21 21:00:00 MDT
    Ceiling Wind Weather Visbility
    Sky clear 350° @ 10kt, gusts 18kt N/A 6SM
    Clouds: Few @ 9,000ft, Few @ 25,000ft
    Raw: KASE 212320Z 2200/2224 35010G18KT P6SM FEW090 FEW250 FM220300 19006KT P6SM FEW090 FEW250 FM221800 29015G25KT P6SM FEW080 SCT250
  • TAF
    2024-04-21 21:00:00 MDT – 2024-04-22 12:00:00 MDT
    Ceiling Wind Weather Visbility
    Sky clear 190° @ 6kt N/A 6SM
    Clouds: Few @ 9,000ft, Few @ 25,000ft
    Raw: KASE 212320Z 2200/2224 35010G18KT P6SM FEW090 FEW250 FM220300 19006KT P6SM FEW090 FEW250 FM221800 29015G25KT P6SM FEW080 SCT250
  • TAF
    2024-04-22 12:00:00 MDT – 2024-04-22 18:00:00 MDT
    Ceiling Wind Weather Visbility
    Sky clear 290° @ 15kt, gusts 25kt N/A 6SM
    Clouds: Few @ 8,000ft, Scattered @ 25,000ft
    Raw: KASE 212320Z 2200/2224 35010G18KT P6SM FEW090 FEW250 FM220300 19006KT P6SM FEW090 FEW250 FM221800 29015G25KT P6SM FEW080 SCT250
Click/tap to add an annotation marker to the map
Direct links to live image URLs will be displayed inline on this page. URLs to separate webpages will be linked to.
URL:
Direct links to live image URLs will be displayed inline on this page. URLs to separate webpages will be linked to.
URL:
Remarks
  • For acft svcs ctc unicom.
  • Existed prior to 1959.
  • Dusk-2300
  • Arpt clsd 2300-0700.
  • Ppr for tkof on ry 15. ctc fbo 970-920-2016.
Comments
Leave a comment What was your experience like at this airport?